Terminal Aerodrome Forecast
Issued by NWS

Home | Current Version | Previous Version | Text Only | Print | Product List | Glossary On
Versions: 1 2 3 4 5 6 7 8 9 10 11 12 13 14 15 16 17 18 19 20 21 22 23
000
FTPQ31 PGUM 311741
TAFGUM
TAF

TAF
PKWA 311741Z 3118/0118 07011KT P6SM VCTS SCT015CB SCT025 BKN120
      TEMPO 3118/3120 3SM +SHRA SCT015 OVC025
     FM312000 07011KT P6SM VCSH SCT015 SCT025 BKN120
      TEMPO 3120/3124 -SHRA SCT015 BKN025 OVC120=

USA.gov is the U.S. government's official web portal to all federal, state and local government web resources and services.